Warren, VT

7:01 PM EST on February 25, 2017 (GMT -0500)
Old Roxbury Rd | | Change Station
Active Advisory: Areal Flood Watch Active Notice: Areal Flood Watch

Elev 1870 ft 44.11 °N, 72.80 °W | Updated 4 minutes ago

Rain
Rain
51.4 °F
Feels Like 51.4 °F
N
4.0
Wind Variable Wind from West
Gusts 7.0 mph

Today
High -- | Low -- °F
--% Chance of Precip.
Yesterday
High -- | Low -- °F
Precip. -- in
Pressure 29.49 in
Visibility 1.8 miles
Clouds Overcast 700 ft
Dew Point 49 °F
Humidity 90%
Rainfall 0.17 in
Snow Depth Not available.
6:34 AM 5:34 PM
Waning Crescent, 0% visible
METAR K6B0 252355Z AUTO 22004KT 1 3/4SM UP OVC007 07/07 A2949 RMK AO2 P0040 60040 T00680068 10205 20068
Pressure 29.49 in
Visibility 1.8 miles
Clouds Overcast 700 ft
Dew Point 49 °F
Humidity 90%
Rainfall 0.17 in
Snow Depth Not available.
6:34 AM 5:34 PM
Waning Crescent, 0% visible
METAR K6B0 252355Z AUTO 22004KT 1 3/4SM UP OVC007 07/07 A2949 RMK AO2 P0040 60040 T00680068 10205 20068

Get Your Daily Forecast Email!

Thanks for signing up!

Be on the lookout for a verification email in your inbox.

You'll start receiving the daily forecast at 8 AM.

×

10-Day Weather Forecast

Almanac

Astronomy

Feb. 25, 2017 Rise Set
Actual Time
Civil Twilight
Nautical Twilight
Astronomical Twilight
Moon
Length of Visible Light
Length of Day
Tomorrow will be .
, % of the Moon is Illuminated

Today's Extremes

State Highs State Lows

Community

WunderPhotos

Upload Photos

1,962,540 photos uploaded!

WunderBlog® & News

Nearby

Air Quality

  Air Quality AQ Index Pollutant
Not available.

Snow Depth

Station Depth Elevation

Earthquake Activity

City Distance Mag. Time & Date
Minimum magnitude displayed is 2.5.

Coastal Water Temperatures

Place Temperature

Stations

Nearby Weather Stations

Station Location Temp. Windchill Dew Point Humidity Wind Precip. Elev Updated Type
                   

Watches & Warnings

Areal Flood Watch
Issued: 4:13 PM EST Feb. 25, 2017 – National Weather Service

... Flood Watch remains in effect through Sunday evening...

The Flood Watch continues for

* all of northern New York and central and northern Vermont.

* Through Sunday evening

* minor to locally moderate flooding is possible due to the
combination of rapid snow melt and rainfall amounts between a
half and one inch. Ice jam flooding is most possible on rivers
in northeast New York and in northern Vermont, mainly north of
Route 15. Open water flooding is possible area wide.

* Rivers will rise overnight, with most rivers cresting after
midnight through mid day Sunday. Minor to moderate flooding is
most likely, with inundation of low lying fields and roads near
rivers.

Precautionary/preparedness actions...

A Flood Watch means there is a potential for flooding based on
current forecasts.

You should monitor later forecasts and be alert for possible
flood warnings. Those living in areas prone to flooding should be
prepared to take action should flooding develop.



Hanson